1861 NOT_NAMED (1861046S16062)


IBTrACS version v04r00. Visit IBTrACS website for data access.
Please direct all questions to the IBTrACS Q and A forum

Storm track - Intensity - Wind Radii - Intensity Data - Source Data - All data

Summary Information

Storm ID 1861046S16062
Start Feb 14 18Z
End Feb 21 06Z
ATCF IDs
Track status Best track data.

Storm track plot

Map of storm track

Intensity plots

No Intensity information for this storm


Radial wind information

No radial wind information for this storm


Position and Intensity Table

BASIN ISO_TIME_________ NATURE LAT LON
degrees north degrees east
SI 1861-02-14 18:00:00 NR -16.00 62.00
SI 21:00:00 NR -16.04 61.81
SI 1861-02-15 00:00:00 NR -16.09 61.60
SI 03:00:00 NR -16.17 61.37
SI 06:00:00 NR -16.30 61.10
SI 09:00:00 NR -16.48 60.79
SI 12:00:00 NR -16.71 60.44
SI 15:00:00 NR -16.95 60.07
SI 18:00:00 NR -17.20 59.70
SI 21:00:00 NR -17.43 59.33
SI 1861-02-16 00:00:00 NR -17.65 58.96
SI 03:00:00 NR -17.88 58.61
SI 06:00:00 NR -18.10 58.30
SI 09:00:00 NR -18.34 58.04
SI 12:00:00 NR -18.57 57.83
SI 15:00:00 NR -18.80 57.65
SI 18:00:00 NR -19.00 57.50
SI 21:00:00 NR -19.15 57.35
SI 1861-02-17 00:00:00 NR -19.28 57.23
SI 03:00:00 NR -19.43 57.11
SI 06:00:00 NR -19.60 57.00
SI 09:00:00 NR -19.84 56.86
SI 12:00:00 NR -20.12 56.73
SI 15:00:00 NR -20.41 56.60
SI 18:00:00 NR -20.70 56.50
SI 21:00:00 NR -20.94 56.42
SI 1861-02-18 00:00:00 NR -21.17 56.35
SI 03:00:00 NR -21.42 56.32
SI 06:00:00 NR -21.70 56.30
SI 09:00:00 NR -22.04 56.29
SI 12:00:00 NR -22.42 56.30
SI 15:00:00 NR -22.81 56.33
SI 18:00:00 NR -23.20 56.40
SI 21:00:00 NR -23.56 56.47
SI 1861-02-19 00:00:00 NR -23.91 56.58
SI 03:00:00 NR -24.25 56.72
SI 06:00:00 NR -24.60 56.90
SI 09:00:00 NR -24.97 57.14
SI 12:00:00 NR -25.34 57.41
SI 15:00:00 NR -25.69 57.71
SI 18:00:00 NR -26.00 58.00
SI 21:00:00 NR -26.27 58.26
SI 1861-02-20 00:00:00 NR -26.50 58.51
SI 03:00:00 NR -26.71 58.75
SI 06:00:00 NR -26.90 59.00
SI 09:00:00 NR -27.09 59.25
SI 12:00:00 NR -27.26 59.50
SI 15:00:00 NR -27.43 59.75
SI 18:00:00 NR -27.60 60.00
SI 21:00:00 NR -27.77 60.25
SI 1861-02-21 00:00:00 NR -27.95 60.50
SI 03:00:00 NR -28.12 60.75
SI 06:00:00 NR -28.30 61.00

Source Information

Agency Information
USA
TOKYO
CMA
HKO
NEWDELHI
REUNION
BOM
NADI
WELLINGTON
DS824
TD9636 cons_worldwide_trop_cyclone_18710101-19891231-005:Line=474
TD9635
NEUMANN
MLC

All available IBTrACS Data

SEASON BASIN SUBBASIN ISO_TIME_________ NATURE LAT LON DIST2LAND LANDFALL IFLAG USA SSHS TD9636 LAT TD9636 LON TD9636 STAGE STORM SPEED STORM DIR
Year degrees north degrees east km km 1 degrees north degrees east kts degrees
1861 SI MM 1861-02-14 18:00:00 NR -16.00 62.00 645 631 __________O___ -1 -16.00 62.00 7 4 259
1861 SI MM 21:00:00 NR -16.04 61.81 631 608 __________P___ -1 -16.04 61.81 7 4 257
1861 SI MM 1861-02-15 00:00:00 NR -16.09 61.60 608 585 __________P___ -1 -16.09 61.60 7 4 252
1861 SI MM 03:00:00 NR -16.17 61.37 585 556 __________P___ -1 -16.17 61.37 7 5 246
1861 SI MM 06:00:00 NR -16.30 61.10 556 518 __________O___ -1 -16.30 61.10 7 6 241
1861 SI MM 09:00:00 NR -16.48 60.79 518 481 __________P___ -1 -16.48 60.79 7 8 237
1861 SI MM 12:00:00 NR -16.71 60.44 475 438 __________P___ -1 -16.71 60.44 7 8 236
1861 SI MM 15:00:00 NR -16.95 60.07 429 386 __________P___ -1 -16.95 60.07 7 9 235
1861 SI MM 18:00:00 NR -17.20 59.70 386 345 __________O___ -1 -17.20 59.70 7 9 236
1861 SI MM 21:00:00 NR -17.43 59.33 345 311 __________P___ -1 -17.43 59.33 7 8 238
1861 SI MM 1861-02-16 00:00:00 NR -17.65 58.96 301 263 __________P___ -1 -17.65 58.96 7 8 237
1861 SI MM 03:00:00 NR -17.88 58.61 263 232 __________P___ -1 -17.88 58.61 7 8 234
1861 SI MM 06:00:00 NR -18.10 58.30 232 205 __________O___ -1 -18.10 58.30 7 7 229
1861 SI MM 09:00:00 NR -18.34 58.04 203 168 __________P___ -1 -18.34 58.04 7 7 223
1861 SI MM 12:00:00 NR -18.57 57.83 168 145 __________P___ -1 -18.57 57.83 7 6 219
1861 SI MM 15:00:00 NR -18.80 57.65 145 123 __________P___ -1 -18.80 57.65 7 5 216
1861 SI MM 18:00:00 NR -19.00 57.50 123 112 __________O___ -1 -19.00 57.50 7 5 219
1861 SI MM 21:00:00 NR -19.15 57.35 101 91 __________P___ -1 -19.15 57.35 7 4 222
1861 SI MM 1861-02-17 00:00:00 NR -19.28 57.23 94 84 __________P___ -1 -19.28 57.23 7 4 219
1861 SI MM 03:00:00 NR -19.43 57.11 88 76 __________P___ -1 -19.43 57.11 7 4 214
1861 SI MM 06:00:00 NR -19.60 57.00 76 68 __________O___ -1 -19.60 57.00 7 5 209
1861 SI MM 09:00:00 NR -19.84 56.86 71 66 __________P___ -1 -19.84 56.86 7 6 206
1861 SI MM 12:00:00 NR -20.12 56.73 76 66 __________P___ -1 -20.12 56.73 7 6 203
1861 SI MM 15:00:00 NR -20.41 56.60 73 72 __________P___ -1 -20.41 56.60 7 6 200
1861 SI MM 18:00:00 NR -20.70 56.50 85 66 __________O___ -1 -20.70 56.50 7 6 199
1861 SI MM 21:00:00 NR -20.94 56.42 66 62 __________P___ -1 -20.94 56.42 7 5 196
1861 SI MM 1861-02-18 00:00:00 NR -21.17 56.35 62 51 __________P___ -1 -21.17 56.35 7 5 191
1861 SI MM 03:00:00 NR -21.42 56.32 52 52 __________P___ -1 -21.42 56.32 7 5 185
1861 SI MM 06:00:00 NR -21.70 56.30 68 68 __________O___ -1 -21.70 56.30 7 6 182
1861 SI MM 09:00:00 NR -22.04 56.29 93 93 __________P___ -1 -22.04 56.29 7 7 0
1861 SI MM 12:00:00 NR -22.42 56.30 133 133 __________P___ -1 -22.42 56.30 7 8 176
1861 SI MM 15:00:00 NR -22.81 56.33 172 172 __________P___ -1 -22.81 56.33 7 8 173
1861 SI MM 18:00:00 NR -23.20 56.40 217 217 __________O___ -1 -23.20 56.40 7 8 170
1861 SI MM 21:00:00 NR -23.56 56.47 262 262 __________P___ -1 -23.56 56.47 7 7 167
1861 SI MM 1861-02-19 00:00:00 NR -23.91 56.58 297 297 __________P___ -1 -23.91 56.58 7 7 162
1861 SI MM 03:00:00 NR -24.25 56.72 343 343 __________P___ -1 -24.25 56.72 7 8 157
1861 SI MM 06:00:00 NR -24.60 56.90 381 381 __________O___ -1 -24.60 56.90 7 8 152
1861 SI MM 09:00:00 NR -24.97 57.14 430 430 __________P___ -1 -24.97 57.14 7 9 148
1861 SI MM 12:00:00 NR -25.34 57.41 473 473 __________P___ -1 -25.34 57.41 7 9 144
1861 SI MM 15:00:00 NR -25.69 57.71 526 526 __________P___ -1 -25.69 57.71 7 9 141
1861 SI MM 18:00:00 NR -26.00 58.00 569 569 __________O___ -1 -26.00 58.00 7 8 140
1861 SI MM 21:00:00 NR -26.27 58.26 612 612 __________P___ -1 -26.27 58.26 7 7 138
1861 SI MM 1861-02-20 00:00:00 NR -26.50 58.51 641 641 __________P___ -1 -26.50 58.51 7 6 135
1861 SI MM 03:00:00 NR -26.71 58.75 675 675 __________P___ -1 -26.71 58.75 7 6 132
1861 SI MM 06:00:00 NR -26.90 59.00 704 704 __________O___ -1 -26.90 59.00 7 6 131
1861 SI MM 09:00:00 NR -27.09 59.25 738 738 __________P___ -1 -27.09 59.25 7 6 129
1861 SI MM 12:00:00 NR -27.26 59.50 767 767 __________P___ -1 -27.26 59.50 7 6 128
1861 SI MM 15:00:00 NR -27.43 59.75 792 792 __________P___ -1 -27.43 59.75 7 6 127
1861 SI MM 18:00:00 NR -27.60 60.00 822 822 __________O___ -1 -27.60 60.00 7 6 127
1861 SI MM 21:00:00 NR -27.77 60.25 851 851 __________P___ -1 -27.77 60.25 7 6 128
1861 SI MM 1861-02-21 00:00:00 NR -27.95 60.50 874 874 __________P___ -1 -27.95 60.50 7 6 128
1861 SI MM 03:00:00 NR -28.12 60.75 901 901 __________P___ -1 -28.12 60.75 7 6 129
1861 SI MM 06:00:00 NR -28.30 61.00 933 __________O___ -1 -28.30 61.00 7 6 129